createdAt,value
2023-01-03T00:01:08.780Z,95917.63
2023-01-03T00:03:37.959Z,95913.53
2023-01-03T00:06:17.814Z,95918.44
2023-01-03T00:08:47.465Z,95920.09
2023-01-03T00:11:18.947Z,95916.50
2023-01-03T00:13:46.984Z,95914.06
2023-01-03T00:16:20.302Z,95913.91
2023-01-03T00:18:49.381Z,95913.75
2023-01-03T00:21:20.052Z,95924.38
2023-01-03T00:23:49.116Z,95920.13
2023-01-03T00:26:18.772Z,95921.75
2023-01-03T00:28:48.117Z,95922.06
2023-01-03T00:31:17.375Z,95926.31
2023-01-03T00:33:46.612Z,95918.31
2023-01-03T00:36:15.808Z,95928.28
2023-01-03T00:38:46.594Z,95918.00
2023-01-03T00:41:18.433Z,95922.88
2023-01-03T00:43:49.422Z,95930.41
2023-01-03T00:46:20.769Z,95923.38
2023-01-03T00:48:49.980Z,95926.66
2023-01-03T00:51:20.781Z,95920.44
2023-01-03T00:53:53.173Z,95915.53
2023-01-03T00:56:23.948Z,95919.28
2023-01-03T00:58:53.480Z,95920.59
2023-01-03T01:01:24.203Z,95912.09
2023-01-03T01:03:56.371Z,95913.56
2023-01-03T01:06:28.349Z,95910.78
2023-01-03T01:09:01.230Z,95913.91
2023-01-03T01:11:31.025Z,95909.97
2023-01-03T01:14:00.231Z,95916.19
2023-01-03T01:16:31.502Z,95910.63
2023-01-03T01:19:01.883Z,95908.34
2023-01-03T01:21:32.884Z,95903.28
2023-01-03T01:24:03.319Z,95914.88
2023-01-03T01:26:32.431Z,95911.09
2023-01-03T01:29:01.511Z,95910.94
2023-01-03T01:31:30.975Z,95908.00
2023-01-03T01:34:00.433Z,95911.25
2023-01-03T01:36:32.267Z,95907.03
2023-01-03T01:39:05.004Z,95911.09
2023-01-03T01:41:55.000Z,95904.56
2023-01-03T01:44:49.064Z,95912.22
2023-01-03T01:47:26.066Z,95909.59
2023-01-03T01:50:03.043Z,95897.19
2023-01-03T01:52:34.365Z,95899.66
2023-01-03T01:55:07.808Z,95900.47
2023-01-03T01:57:39.432Z,95894.59
2023-01-03T02:00:11.254Z,95899.16
2023-01-03T02:02:48.355Z,95888.53
2023-01-03T02:05:19.883Z,95891.16
2023-01-03T02:07:50.959Z,95897.50
2023-01-03T02:10:26.875Z,95891.63
2023-01-03T02:13:12.881Z,95890.66
2023-01-03T02:16:02.523Z,95889.81
2023-01-03T02:18:44.483Z,95881.94
2023-01-03T02:21:57.130Z,95882.91
2023-01-03T02:24:45.665Z,95890.75
2023-01-03T02:27:47.513Z,95887.97
2023-01-03T02:30:34.656Z,95887.97
2023-01-03T02:33:17.152Z,95882.88
2023-01-03T02:35:56.804Z,95878.34
2023-01-03T02:38:37.935Z,95876.19
2023-01-03T02:41:17.152Z,95886.63
2023-01-03T02:43:55.456Z,95878.78
2023-01-03T02:46:31.931Z,95881.91
2023-01-03T02:49:06.018Z,95884.84
2023-01-03T02:51:39.103Z,95891.38
2023-01-03T02:54:14.188Z,95889.72
2023-01-03T02:56:50.211Z,95886.31
2023-01-03T02:59:25.888Z,95881.56
2023-01-03T03:01:56.953Z,95881.91
2023-01-03T03:04:26.859Z,95876.47
2023-01-03T03:07:03.430Z,95882.38
2023-01-03T03:09:32.525Z,95882.66
2023-01-03T03:12:20.520Z,95882.97
2023-01-03T03:14:52.814Z,95880.88
2023-01-03T03:17:30.589Z,95885.25
2023-01-03T03:20:17.165Z,95883.94
2023-01-03T03:23:05.960Z,95876.91
2023-01-03T03:25:42.049Z,95876.59
2023-01-03T03:28:36.290Z,95877.94
2023-01-03T03:31:10.238Z,95878.16
2023-01-03T03:33:45.578Z,95868.41
2023-01-03T03:36:21.233Z,95877.25
2023-01-03T03:38:50.750Z,95872.50
2023-01-03T03:41:41.590Z,95876.09
2023-01-03T03:44:37.919Z,95868.78
2023-01-03T03:47:16.142Z,95870.88
2023-01-03T03:49:50.997Z,95875.63
2023-01-03T03:52:26.644Z,95875.78
2023-01-03T03:55:00.976Z,95879.38
2023-01-03T03:57:37.548Z,95881.97
2023-01-03T04:00:10.590Z,95878.84
2023-01-03T04:02:43.932Z,95879.50
2023-01-03T04:05:17.355Z,95881.66
2023-01-03T04:07:46.883Z,95878.00
2023-01-03T04:10:20.539Z,95876.72
2023-01-03T04:12:50.294Z,95878.69
2023-01-03T04:15:19.991Z,95877.69
2023-01-03T04:17:49.100Z,95895.31
2023-01-03T04:20:20.382Z,95887.88
2023-01-03T04:22:49.487Z,95891.28
2023-01-03T04:25:18.756Z,95888.41
2023-01-03T04:27:47.827Z,95888.88
2023-01-03T04:30:17.095Z,95885.13
2023-01-03T04:32:46.384Z,95893.09
2023-01-03T04:35:15.500Z,95891.50
2023-01-03T04:37:46.180Z,95892.16
2023-01-03T04:40:15.278Z,95887.88
2023-01-03T04:43:01.876Z,95889.50
2023-01-03T04:45:31.200Z,95894.59
2023-01-03T04:48:00.249Z,95898.97
2023-01-03T04:50:30.530Z,95892.47
2023-01-03T04:53:01.305Z,95898.88
2023-01-03T04:55:30.410Z,95902.59
2023-01-03T04:57:59.532Z,95903.75
2023-01-03T05:00:28.754Z,95916.47
2023-01-03T05:02:57.859Z,95906.09
2023-01-03T05:05:27.054Z,95907.38
2023-01-03T05:07:56.112Z,95912.03
2023-01-03T05:10:26.691Z,95918.06
2023-01-03T05:13:01.167Z,95912.59
2023-01-03T05:15:30.858Z,95909.16
2023-01-03T05:18:00.148Z,95921.88
2023-01-03T05:20:46.713Z,95919.25
2023-01-03T05:23:34.625Z,95920.56
2023-01-03T05:26:09.692Z,95925.78
2023-01-03T05:28:39.398Z,95915.16
2023-01-03T05:31:08.536Z,95915.41
2023-01-03T05:33:39.672Z,95920.00
2023-01-03T05:36:10.236Z,95915.84
2023-01-03T05:38:39.720Z,95920.09
2023-01-03T05:41:10.832Z,95925.69
2023-01-03T05:43:39.962Z,95920.63
2023-01-03T05:46:09.089Z,95927.94
2023-01-03T05:48:38.407Z,95919.44
2023-01-03T05:51:07.619Z,95926.13
2023-01-03T05:53:36.737Z,95923.97
2023-01-03T05:56:06.972Z,95931.31
2023-01-03T05:58:37.901Z,95926.75
2023-01-03T06:01:10.341Z,95928.38
2023-01-03T06:03:39.626Z,95923.63
2023-01-03T06:06:10.867Z,95941.72
2023-01-03T06:08:40.769Z,95935.50
2023-01-03T06:11:11.548Z,95930.94
2023-01-03T06:13:42.940Z,95935.34
2023-01-03T06:16:32.829Z,95939.28
2023-01-03T06:19:02.815Z,95940.69
2023-01-03T06:21:32.076Z,95950.47
2023-01-03T06:24:01.463Z,95950.97
2023-01-03T06:26:30.654Z,95958.19
2023-01-03T06:29:01.404Z,95962.28
2023-01-03T06:31:31.039Z,95955.69
2023-01-03T06:34:00.326Z,95959.47
2023-01-03T06:36:29.430Z,95963.19
2023-01-03T06:39:00.027Z,95966.69
2023-01-03T06:41:29.127Z,95964.72
2023-01-03T06:43:58.672Z,95971.00
2023-01-03T06:46:47.673Z,95970.84
2023-01-03T06:49:35.386Z,95973.94
2023-01-03T06:52:25.125Z,95971.19
2023-01-03T06:54:55.831Z,95970.28
2023-01-03T06:57:26.507Z,95982.41
2023-01-03T06:59:56.649Z,95981.38
2023-01-03T07:02:27.456Z,95978.16
2023-01-03T07:04:56.706Z,95981.66
2023-01-03T07:07:25.869Z,95977.16
2023-01-03T07:09:55.086Z,95987.38
2023-01-03T07:12:41.505Z,95974.41
2023-01-03T07:15:12.218Z,95990.38
2023-01-03T07:17:42.797Z,95981.22
2023-01-03T07:20:12.343Z,95971.50
2023-01-03T07:22:41.661Z,95973.50
2023-01-03T07:25:11.505Z,95985.94
2023-01-03T07:27:40.586Z,95987.59
2023-01-03T07:30:11.364Z,95993.97
2023-01-03T07:32:42.155Z,95985.50
2023-01-03T07:35:11.610Z,95989.75
2023-01-03T07:37:40.824Z,95988.13
2023-01-03T07:40:11.282Z,95990.84
2023-01-03T07:42:58.833Z,95992.06
2023-01-03T07:45:28.115Z,96002.53
2023-01-03T07:47:58.823Z,96000.88
2023-01-03T07:50:28.081Z,96004.56
2023-01-03T07:52:57.314Z,96006.44
2023-01-03T07:55:26.593Z,96004.13
2023-01-03T07:57:55.763Z,96005.19
2023-01-03T08:00:25.126Z,96014.88
2023-01-03T08:02:56.032Z,96010.75
2023-01-03T08:05:27.152Z,96011.31
2023-01-03T08:07:57.996Z,96014.06
2023-01-03T08:10:44.336Z,96017.75
2023-01-03T08:13:19.587Z,96015.41
2023-01-03T08:16:11.871Z,96008.47
2023-01-03T08:18:42.657Z,96006.81
2023-01-03T08:21:15.582Z,96006.16
2023-01-03T08:23:45.134Z,96017.19
2023-01-03T08:26:16.364Z,96016.19
2023-01-03T08:28:48.458Z,96004.41
2023-01-03T08:31:22.609Z,96005.41
2023-01-03T08:33:55.648Z,96004.38
2023-01-03T08:36:29.112Z,96000.09
2023-01-03T08:39:02.179Z,96004.69
2023-01-03T08:41:33.261Z,96007.88
2023-01-03T08:44:04.401Z,96006.38
2023-01-03T08:46:35.632Z,95993.75
2023-01-03T08:49:05.324Z,95998.28
2023-01-03T08:51:36.028Z,95990.91
2023-01-03T08:54:05.734Z,95998.22
2023-01-03T08:56:35.642Z,95988.72
2023-01-03T08:59:05.715Z,95986.19
2023-01-03T09:01:35.042Z,95981.91
2023-01-03T09:04:05.664Z,95986.63
2023-01-03T09:06:36.394Z,95985.16
2023-01-03T09:09:06.715Z,95982.53
2023-01-03T09:11:36.122Z,95982.78
2023-01-03T09:14:05.397Z,95977.22
2023-01-03T09:16:34.683Z,95976.34
2023-01-03T09:19:04.044Z,95983.28
2023-01-03T09:21:33.403Z,95973.53
2023-01-03T09:24:04.307Z,95970.53
2023-01-03T09:26:33.635Z,95963.34
2023-01-03T09:29:02.963Z,95966.13
2023-01-03T09:31:34.902Z,95958.78
2023-01-03T09:34:05.636Z,95953.66
2023-01-03T09:36:38.652Z,95948.72
2023-01-03T09:39:09.339Z,95949.22
2023-01-03T09:41:40.843Z,95943.63
2023-01-03T09:44:11.106Z,95943.34
2023-01-03T09:46:40.393Z,95933.59
2023-01-03T09:49:09.573Z,95930.88
2023-01-03T09:52:05.177Z,95928.44
2023-01-03T09:54:57.287Z,95913.69
2023-01-03T09:57:46.351Z,95913.97
2023-01-03T10:00:38.489Z,95911.44
2023-01-03T10:03:51.620Z,95903.75
2023-01-03T10:06:33.637Z,95901.50
2023-01-03T10:09:21.708Z,95886.06
2023-01-03T10:12:04.887Z,95880.69
2023-01-03T10:14:47.827Z,95871.94
2023-01-03T10:17:30.147Z,95875.84
2023-01-03T10:20:14.875Z,95863.13
2023-01-03T10:22:44.305Z,95869.19
2023-01-03T10:25:15.051Z,95853.41
2023-01-03T10:27:49.812Z,95842.00
2023-01-03T10:30:21.586Z,95840.16
2023-01-03T10:33:22.331Z,95835.97
2023-01-03T10:35:52.418Z,95833.06
2023-01-03T10:38:23.229Z,95830.56
2023-01-03T10:40:54.735Z,95824.88
2023-01-03T10:43:31.722Z,95821.66
2023-01-03T10:46:03.187Z,95813.56
2023-01-03T10:49:08.357Z,95807.47
2023-01-03T10:51:42.268Z,95813.81
2023-01-03T10:54:22.403Z,95808.13
2023-01-03T10:56:51.806Z,95792.97
2023-01-03T10:59:26.048Z,95792.34
2023-01-03T11:02:00.660Z,95798.72
2023-01-03T11:04:31.174Z,95787.53
2023-01-03T11:07:16.255Z,95791.50
2023-01-03T11:09:51.655Z,95787.34
2023-01-03T11:12:29.245Z,95784.97
2023-01-03T11:15:01.470Z,95785.59
2023-01-03T11:17:33.060Z,95779.88
2023-01-03T11:20:02.524Z,95773.19
2023-01-03T11:22:42.046Z,95767.97
2023-01-03T11:25:30.590Z,95762.72
2023-01-03T11:28:20.139Z,95765.03
2023-01-03T11:31:00.472Z,95769.88
2023-01-03T11:33:55.216Z,95760.41
2023-01-03T11:36:36.366Z,95766.72
2023-01-03T11:39:26.291Z,95755.16
2023-01-03T11:42:23.760Z,95749.78
2023-01-03T11:45:20.122Z,95751.06
2023-01-03T11:47:58.585Z,95749.03
2023-01-03T11:50:39.723Z,95751.47
2023-01-03T11:53:25.094Z,95743.41
2023-01-03T11:56:08.549Z,95743.47
2023-01-03T11:59:04.518Z,95742.91
2023-01-03T12:01:49.361Z,95746.06
2023-01-03T12:04:30.731Z,95747.81
2023-01-03T12:10:10.913Z,95730.47
2023-01-03T12:13:05.432Z,95738.22
2023-01-03T12:15:44.932Z,95728.84
2023-01-03T12:18:21.861Z,95722.00
2023-01-03T12:20:58.674Z,95729.88
2023-01-03T12:23:35.712Z,95720.59
2023-01-03T12:26:09.008Z,95718.75
2023-01-03T12:28:42.311Z,95714.88
2023-01-03T12:31:27.898Z,95715.25
2023-01-03T12:34:12.106Z,95719.75
2023-01-03T12:36:48.690Z,95721.19
2023-01-03T12:39:36.500Z,95715.69
2023-01-03T12:42:14.089Z,95716.28
2023-01-03T12:44:45.965Z,95713.97
2023-01-03T12:47:27.103Z,95722.41
2023-01-03T12:50:03.776Z,95718.25
2023-01-03T12:52:37.684Z,95721.97
2023-01-03T12:55:20.075Z,95711.56
2023-01-03T12:58:07.453Z,95719.81
2023-01-03T13:01:05.636Z,95725.72
2023-01-03T13:03:40.494Z,95729.19
2023-01-03T13:06:17.916Z,95728.13
2023-01-03T13:08:52.998Z,95728.94
2023-01-03T13:11:27.339Z,95732.22
2023-01-03T13:14:00.275Z,95728.38
2023-01-03T13:16:45.184Z,95726.13
2023-01-03T13:19:56.906Z,95727.97
2023-01-03T13:22:47.171Z,95729.84
2023-01-03T13:25:40.203Z,95728.94
2023-01-03T13:28:31.425Z,95728.38
2023-01-03T13:31:47.792Z,95726.28
2023-01-03T13:34:35.566Z,95723.69
2023-01-03T13:37:18.335Z,95728.09
2023-01-03T13:40:18.746Z,95728.72
2023-01-03T13:42:49.592Z,95722.25
2023-01-03T13:45:58.962Z,95715.69
2023-01-03T13:48:41.202Z,95720.88
2023-01-03T13:51:39.573Z,95714.06
2023-01-03T13:54:28.313Z,95715.72
2023-01-03T13:57:07.249Z,95721.94
2023-01-03T14:00:03.790Z,95719.53
2023-01-03T14:03:20.700Z,95716.56
2023-01-03T14:06:22.153Z,95711.66
2023-01-03T14:09:32.165Z,95713.50
2023-01-03T14:12:42.772Z,95715.13
2023-01-03T14:15:26.451Z,95718.38
2023-01-03T14:17:59.693Z,95720.91
2023-01-03T14:20:32.818Z,95720.75
2023-01-03T14:23:17.057Z,95722.47
2023-01-03T14:25:53.164Z,95720.56
2023-01-03T14:28:25.371Z,95721.59
2023-01-03T14:31:03.746Z,95716.00
2023-01-03T14:33:38.530Z,95716.41
2023-01-03T14:36:09.805Z,95720.44
2023-01-03T14:38:39.013Z,95714.69
2023-01-03T14:41:21.589Z,95712.06
2023-01-03T14:43:50.921Z,95723.72
2023-01-03T14:46:21.520Z,95722.59
2023-01-03T14:48:50.758Z,95724.75
2023-01-03T14:51:20.979Z,95728.47
2023-01-03T14:53:51.729Z,95727.19
2023-01-03T14:56:31.135Z,95719.41
2023-01-03T14:59:02.468Z,95719.69
2023-01-03T15:01:33.299Z,95709.47
2023-01-03T15:04:04.356Z,95725.19
2023-01-03T15:06:34.561Z,95717.53
2023-01-03T15:09:20.263Z,95722.84
2023-01-03T15:11:59.832Z,95721.78
2023-01-03T15:14:30.982Z,95726.50
2023-01-03T15:17:07.369Z,95728.34
2023-01-03T15:19:40.807Z,95721.00
2023-01-03T15:22:16.136Z,95725.44
2023-01-03T15:24:47.579Z,95728.53
2023-01-03T15:27:50.752Z,95727.63
2023-01-03T15:30:26.951Z,95726.63
2023-01-03T15:33:05.231Z,95726.47
2023-01-03T15:35:39.609Z,95729.31
2023-01-03T15:38:18.779Z,95733.72
2023-01-03T15:40:50.951Z,95737.91
2023-01-03T15:43:23.952Z,95732.25
2023-01-03T15:46:03.719Z,95731.75
2023-01-03T15:48:36.669Z,95736.09
2023-01-03T15:51:07.224Z,95731.66
2023-01-03T15:53:44.387Z,95737.41
2023-01-03T15:56:20.306Z,95740.28
2023-01-03T15:58:52.417Z,95740.09
2023-01-03T16:01:24.301Z,95751.72
2023-01-03T16:03:56.190Z,95750.00
2023-01-03T16:06:25.730Z,95743.72
2023-01-03T16:08:55.322Z,95742.47
2023-01-03T16:11:33.738Z,95753.66
2023-01-03T16:14:06.279Z,95744.03
2023-01-03T16:16:39.904Z,95748.91
2023-01-03T16:19:21.145Z,95755.22
2023-01-03T16:22:09.459Z,95757.94
2023-01-03T16:24:42.752Z,95765.50
2023-01-03T16:27:17.942Z,95762.28
2023-01-03T16:29:47.881Z,95763.91
2023-01-03T16:32:23.706Z,95766.16
2023-01-03T16:35:03.500Z,95772.69
2023-01-03T16:37:35.171Z,95762.94
2023-01-03T16:40:06.456Z,95773.31
2023-01-03T16:42:36.425Z,95778.06
2023-01-03T16:45:06.479Z,95784.41
2023-01-03T16:47:39.457Z,95781.38
2023-01-03T16:50:18.754Z,95785.94
2023-01-03T16:52:52.589Z,95793.44
2023-01-03T16:55:26.828Z,95800.56
2023-01-03T16:57:56.980Z,95799.97
2023-01-03T17:00:28.360Z,95798.56
2023-01-03T17:03:00.345Z,95801.59
2023-01-03T17:05:35.680Z,95798.78
2023-01-03T17:08:08.100Z,95800.00
2023-01-03T17:10:40.627Z,95802.84
2023-01-03T17:13:26.322Z,95805.94
2023-01-03T17:15:57.005Z,95803.13
2023-01-03T17:18:31.025Z,95800.66
2023-01-03T17:21:12.459Z,95798.00
2023-01-03T17:23:44.605Z,95813.88
2023-01-03T17:26:17.150Z,95801.28
2023-01-03T17:28:47.975Z,95805.97
2023-01-03T17:31:20.126Z,95806.16
2023-01-03T17:33:50.148Z,95816.13
2023-01-03T17:36:25.680Z,95811.84
2023-01-03T17:39:00.461Z,95811.84
2023-01-03T17:41:30.887Z,95809.00
2023-01-03T17:44:03.453Z,95809.41
2023-01-03T17:46:53.383Z,95814.69
2023-01-03T17:49:29.941Z,95814.50
2023-01-03T17:52:03.477Z,95809.22
2023-01-03T17:54:38.147Z,95818.59
2023-01-03T17:57:08.593Z,95818.59
2023-01-03T17:59:38.316Z,95819.59
2023-01-03T18:02:19.268Z,95820.41
2023-01-03T18:05:15.113Z,95824.09
2023-01-03T18:07:41.413Z,95832.19
2023-01-03T18:10:16.779Z,95832.41
2023-01-03T18:12:50.024Z,95827.34
2023-01-03T18:15:22.252Z,95840.31
2023-01-03T18:17:55.433Z,95844.78
2023-01-03T18:20:28.415Z,95836.25
2023-01-03T18:23:00.570Z,95838.28
2023-01-03T18:25:30.475Z,95839.34
2023-01-03T18:28:03.767Z,95837.09
2023-01-03T18:30:33.278Z,95838.28
2023-01-03T18:33:02.701Z,95843.81
2023-01-03T18:35:38.829Z,95841.94
2023-01-03T18:38:20.517Z,95844.78
2023-01-03T18:40:51.611Z,95833.41
2023-01-03T18:43:24.033Z,95835.63
2023-01-03T18:45:53.800Z,95836.84
2023-01-03T18:48:30.533Z,95840.72
2023-01-03T18:51:05.896Z,95836.84
2023-01-03T18:53:44.521Z,95830.75
2023-01-03T18:56:36.488Z,95838.44
2023-01-03T18:59:15.879Z,95837.63
2023-01-03T19:01:45.426Z,95829.91
2023-01-03T19:04:14.922Z,95845.53
2023-01-03T19:06:49.762Z,95845.09
2023-01-03T19:09:26.852Z,95845.47
2023-01-03T19:11:59.431Z,95845.34
2023-01-03T19:14:32.476Z,95840.88
2023-01-03T19:17:11.483Z,95845.94
2023-01-03T19:19:42.843Z,95845.56
2023-01-03T19:22:24.397Z,95839.88
2023-01-03T19:25:00.446Z,95837.66
2023-01-03T19:27:41.874Z,95836.63
2023-01-03T19:30:23.093Z,95830.94
2023-01-03T19:32:58.498Z,95830.34
2023-01-03T19:35:34.758Z,95832.56
2023-01-03T19:38:09.723Z,95835.03
2023-01-03T19:40:51.148Z,95837.44
2023-01-03T19:43:27.635Z,95838.47
2023-01-03T19:45:59.035Z,95833.63
2023-01-03T19:48:37.700Z,95836.84
2023-01-03T19:51:11.807Z,95833.41
2023-01-03T19:53:44.158Z,95823.84
2023-01-03T19:56:26.252Z,95831.38
2023-01-03T19:59:02.739Z,95838.66
2023-01-03T20:02:14.280Z,95837.47
2023-01-03T20:04:32.133Z,95838.91
2023-01-03T20:07:20.995Z,95834.22
2023-01-03T20:09:51.411Z,95837.06
2023-01-03T20:12:28.569Z,95838.28
2023-01-03T20:15:04.586Z,95849.66
2023-01-03T20:17:39.150Z,95839.28
2023-01-03T20:20:12.716Z,95844.38
2023-01-03T20:25:39.962Z,95843.13
2023-01-03T20:28:24.394Z,95839.06
2023-01-03T20:30:56.894Z,95843.72
2023-01-03T20:33:28.628Z,95837.44
2023-01-03T20:36:12.676Z,95842.66
2023-01-03T20:38:49.269Z,95844.66
2023-01-03T20:41:22.536Z,95850.50
2023-01-03T20:43:56.332Z,95850.50
2023-01-03T20:46:30.139Z,95854.34
2023-01-03T20:49:02.442Z,95847.44
2023-01-03T20:51:32.599Z,95844.41
2023-01-03T20:54:07.245Z,95845.78
2023-01-03T20:56:41.712Z,95848.63
2023-01-03T20:59:16.749Z,95844.97
2023-01-03T21:01:48.221Z,95844.59
2023-01-03T21:04:19.039Z,95841.16
2023-01-03T21:06:49.014Z,95842.16
2023-01-03T21:09:18.451Z,95842.97
2023-01-03T21:11:49.132Z,95843.41
2023-01-03T21:14:19.896Z,95844.03
2023-01-03T21:16:50.105Z,95840.56
2023-01-03T21:19:21.462Z,95843.41
2023-01-03T21:21:53.335Z,95844.22
2023-01-03T21:24:25.240Z,95839.16
2023-01-03T21:26:54.658Z,95840.38
2023-01-03T21:29:25.336Z,95841.19
2023-01-03T21:31:59.384Z,95845.66
2023-01-03T21:34:28.678Z,95844.22
2023-01-03T21:36:58.260Z,95840.19
2023-01-03T21:39:30.321Z,95833.53
2023-01-03T21:42:16.575Z,95840.41
2023-01-03T21:44:47.207Z,95833.28
2023-01-03T21:47:16.355Z,95843.47
2023-01-03T21:49:45.509Z,95844.84
2023-01-03T21:52:14.695Z,95841.81
2023-01-03T21:54:43.789Z,95845.09
2023-01-03T21:57:17.695Z,95854.41
2023-01-03T21:59:51.853Z,95855.41
2023-01-03T22:02:38.359Z,95848.38
2023-01-03T22:05:08.069Z,95850.44
2023-01-03T22:07:37.348Z,95850.81
2023-01-03T22:10:20.196Z,95856.66
2023-01-03T22:12:51.502Z,95850.19
2023-01-03T22:15:22.693Z,95852.22
2023-01-03T22:17:51.969Z,95848.38
2023-01-03T22:20:23.384Z,95852.25
2023-01-03T22:22:53.574Z,95845.59
2023-01-03T22:25:25.031Z,95852.53
2023-01-03T22:27:57.529Z,95837.53
2023-01-03T22:30:28.756Z,95847.50
2023-01-03T22:32:58.797Z,95840.63
2023-01-03T22:35:28.125Z,95841.44
2023-01-03T22:37:57.514Z,95839.25
2023-01-03T22:40:26.669Z,95837.00
2023-01-03T22:42:56.353Z,95840.47
2023-01-03T22:45:25.472Z,95845.75
2023-01-03T22:47:56.296Z,95835.81
2023-01-03T22:50:25.768Z,95839.69
2023-01-03T22:52:55.155Z,95831.97
2023-01-03T22:55:28.332Z,95832.16
2023-01-03T22:58:01.779Z,95839.88
2023-01-03T23:00:31.019Z,95834.59
2023-01-03T23:03:03.443Z,95840.88
2023-01-03T23:05:32.659Z,95835.81
2023-01-03T23:08:01.948Z,95837.03
2023-01-03T23:10:31.286Z,95837.03
2023-01-03T23:12:59.458Z,95840.88
2023-01-03T23:15:33.784Z,95827.69
2023-01-03T23:18:04.232Z,95837.81
2023-01-03T23:20:35.575Z,95833.97
2023-01-03T23:23:05.934Z,95842.66
2023-01-03T23:25:37.114Z,95832.28
2023-01-03T23:28:06.512Z,95828.63
2023-01-03T23:30:46.117Z,95828.00
2023-01-03T23:33:16.674Z,95833.72
2023-01-03T23:35:45.840Z,95826.19
2023-01-03T23:38:14.902Z,95817.25
2023-01-03T23:40:44.700Z,95824.16
2023-01-03T23:43:13.969Z,95824.38
2023-01-03T23:45:43.102Z,95825.00
2023-01-03T23:48:12.171Z,95826.88
2023-01-03T23:50:42.844Z,95826.41
2023-01-03T23:53:11.829Z,95828.91
2023-01-03T23:55:40.889Z,95833.34
2023-01-03T23:58:10.228Z,95830.72
